Terminal Aerodrome Forecast
Issued by NWS

Home | Current Version | Previous Version | Graphics & Text | Print | Product List | Glossary Off
Versions: 1 2 3 4 5 6 7 8 9 10 11 12 13 14 15 16 17 18 19 20 21 22 23 24 25 26 27 28 29 30 31 32 33 34

000
FTUS43 KDDC 041722
TAFHYS
TAF
KHYS 041722Z 0418/0518 VRB06KT P6SM OVC100
     FM042000 10009KT P6SM SCT060
     FM042300 14020G30KT P6SM VCTS BKN070CB
      TEMPO 0423/0502 VRB20G40KT P6SM -TSRA BKN050CB
     FM050500 15003KT P6SM OVC100
     FM051000 13006KT 4SM BR OVC025
     FM051400 13006KT 3SM -RA BR OVC020=

USA.gov is the U.S. government's official web portal to all federal, state and local government web resources and services.